createdAt,value
2023-02-13T00:02:16.287Z,17.75
2023-02-13T00:04:42.503Z,18.63
2023-02-13T00:07:08.631Z,19.42
2023-02-13T00:09:34.845Z,17.63
2023-02-13T00:12:01.008Z,16.13
2023-02-13T00:14:27.222Z,19.02
2023-02-13T00:16:53.402Z,19.60
2023-02-13T00:19:19.583Z,18.50
2023-02-13T00:21:45.705Z,16.48
2023-02-13T00:24:11.860Z,16.95
2023-02-13T00:26:40.153Z,17.42
2023-02-13T00:29:06.292Z,18.48
2023-02-13T00:31:32.526Z,16.55
2023-02-13T00:33:58.758Z,17.45
2023-02-13T00:36:24.938Z,16.58
2023-02-13T00:38:51.131Z,19.02
2023-02-13T00:41:17.305Z,16.30
2023-02-13T00:43:43.515Z,17.70
2023-02-13T00:46:09.798Z,15.50
2023-02-13T00:48:36.039Z,16.50
2023-02-13T00:51:02.167Z,15.43
2023-02-13T00:53:28.359Z,16.15
2023-02-13T00:55:54.558Z,16.45
2023-02-13T00:58:20.785Z,16.15
2023-02-13T01:00:46.952Z,16.33
2023-02-13T01:03:13.129Z,16.13
2023-02-13T01:05:39.360Z,15.23
2023-02-13T01:08:05.559Z,16.23
2023-02-13T01:10:31.765Z,15.82
2023-02-13T01:12:57.892Z,15.85
2023-02-13T01:15:24.104Z,15.88
2023-02-13T01:17:50.300Z,15.90
2023-02-13T01:20:16.478Z,17.73
2023-02-13T01:22:42.769Z,15.20
2023-02-13T01:25:08.960Z,15.40
2023-02-13T01:27:35.134Z,15.38
2023-02-13T01:30:01.321Z,14.73
2023-02-13T01:32:27.484Z,15.55
2023-02-13T01:34:53.671Z,15.00
2023-02-13T01:37:19.875Z,15.50
2023-02-13T01:39:46.020Z,13.75
2023-02-13T01:42:12.170Z,14.63
2023-02-13T01:44:38.343Z,12.93
2023-02-13T01:47:04.521Z,14.35
2023-02-13T01:49:30.701Z,12.18
2023-02-13T01:51:56.895Z,12.98
2023-02-13T01:54:23.058Z,12.60
2023-02-13T01:56:49.188Z,13.48
2023-02-13T01:59:15.354Z,12.85
2023-02-13T02:01:41.643Z,12.07
2023-02-13T02:04:07.833Z,12.98
2023-02-13T02:06:33.985Z,12.40
2023-02-13T02:09:00.188Z,13.88
2023-02-13T02:11:26.346Z,12.43
2023-02-13T02:13:52.465Z,13.10
2023-02-13T02:16:18.647Z,12.80
2023-02-13T02:18:44.930Z,12.90
2023-02-13T02:21:11.073Z,13.65
2023-02-13T02:23:37.232Z,13.27
2023-02-13T02:26:03.408Z,12.25
2023-02-13T02:28:29.638Z,12.85
2023-02-13T02:30:56.282Z,12.07
2023-02-13T02:33:22.628Z,12.55
2023-02-13T02:35:48.824Z,10.70
2023-02-13T02:38:15.010Z,12.15
2023-02-13T02:40:41.212Z,11.88
2023-02-13T02:43:07.395Z,11.52
2023-02-13T02:45:33.578Z,11.48
2023-02-13T02:47:59.780Z,10.93
2023-02-13T02:50:25.987Z,11.52
2023-02-13T02:52:52.178Z,10.40
2023-02-13T02:55:21.452Z,10.52
2023-02-13T02:57:47.654Z,10.48
2023-02-13T03:00:13.789Z,10.93
2023-02-13T03:02:39.952Z,12.32
2023-02-13T03:05:06.072Z,11.13
2023-02-13T03:07:32.287Z,10.80
2023-02-13T03:09:58.419Z,11.55
2023-02-13T03:12:24.609Z,11.32
2023-02-13T03:14:50.760Z,10.57
2023-02-13T03:17:16.889Z,10.98
2023-02-13T03:19:43.088Z,10.95
2023-02-13T03:22:09.246Z,10.70
2023-02-13T03:24:35.419Z,12.15
2023-02-13T03:27:01.617Z,11.13
2023-02-13T03:29:27.736Z,12.15
2023-02-13T03:31:53.962Z,11.68
2023-02-13T03:34:20.193Z,12.05
2023-02-13T03:36:46.338Z,11.85
2023-02-13T03:39:12.496Z,11.65
2023-02-13T03:41:38.617Z,10.50
2023-02-13T03:44:04.777Z,10.23
2023-02-13T03:46:30.948Z,11.80
2023-02-13T03:48:57.166Z,10.68
2023-02-13T03:51:23.349Z,12.55
2023-02-13T03:53:49.470Z,10.63
2023-02-13T03:56:15.667Z,12.23
2023-02-13T03:58:41.804Z,10.95
2023-02-13T04:01:08.051Z,10.68
2023-02-13T04:03:34.345Z,11.82
2023-02-13T04:06:00.530Z,11.60
2023-02-13T04:08:26.688Z,11.18
2023-02-13T04:10:52.990Z,11.50
2023-02-13T04:13:19.163Z,12.98
2023-02-13T04:15:45.351Z,10.57
2023-02-13T04:18:11.509Z,13.82
2023-02-13T04:20:37.741Z,11.70
2023-02-13T04:23:03.860Z,12.32
2023-02-13T04:25:30.019Z,12.90
2023-02-13T04:27:56.170Z,13.07
2023-02-13T04:30:22.315Z,13.18
2023-02-13T04:32:48.481Z,11.98
2023-02-13T04:35:14.641Z,13.02
2023-02-13T04:37:40.816Z,14.05
2023-02-13T04:40:06.945Z,13.93
2023-02-13T04:42:33.082Z,13.27
2023-02-13T04:44:59.276Z,13.27
2023-02-13T04:47:25.409Z,12.88
2023-02-13T04:49:51.617Z,14.27
2023-02-13T04:52:17.772Z,14.82
2023-02-13T04:54:43.893Z,14.48
2023-02-13T04:57:10.086Z,14.93
2023-02-13T04:59:36.272Z,12.48
2023-02-13T05:02:02.427Z,13.77
2023-02-13T05:04:28.553Z,14.65
2023-02-13T05:06:54.708Z,13.65
2023-02-13T05:09:20.894Z,13.70
2023-02-13T05:11:47.048Z,11.75
2023-02-13T05:14:13.239Z,13.40
2023-02-13T05:16:39.463Z,12.85
2023-02-13T05:19:05.701Z,11.38
2023-02-13T05:21:31.899Z,12.40
2023-02-13T05:23:58.103Z,12.65
2023-02-13T05:26:24.245Z,13.27
2023-02-13T05:28:51.909Z,11.90
2023-02-13T05:31:18.237Z,13.75
2023-02-13T05:33:44.445Z,12.20
2023-02-13T05:36:10.625Z,11.93
2023-02-13T05:38:36.915Z,12.20
2023-02-13T05:41:03.049Z,12.02
2023-02-13T05:43:29.185Z,12.35
2023-02-13T05:45:55.402Z,13.43
2023-02-13T05:48:21.587Z,13.02
2023-02-13T05:50:47.725Z,12.13
2023-02-13T05:53:13.948Z,11.93
2023-02-13T05:55:40.131Z,11.43
2023-02-13T05:58:06.305Z,12.68
2023-02-13T06:00:32.492Z,12.13
2023-02-13T06:02:58.692Z,12.55
2023-02-13T06:05:24.939Z,12.93
2023-02-13T06:07:51.152Z,13.18
2023-02-13T06:10:17.289Z,12.75
2023-02-13T06:12:43.491Z,11.77
2023-02-13T06:15:09.677Z,12.15
2023-02-13T06:17:35.803Z,11.75
2023-02-13T06:20:01.944Z,13.10
2023-02-13T06:22:28.070Z,12.20
2023-02-13T06:24:54.231Z,11.63
2023-02-13T06:27:20.413Z,11.75
2023-02-13T06:29:46.560Z,13.60
2023-02-13T06:32:12.751Z,11.38
2023-02-13T06:34:38.887Z,12.02
2023-02-13T06:37:05.051Z,13.27
2023-02-13T06:39:31.226Z,12.77
2023-02-13T06:41:57.386Z,13.32
2023-02-13T06:44:23.724Z,13.00
2023-02-13T06:46:49.947Z,12.98
2023-02-13T06:49:16.139Z,14.07
2023-02-13T06:51:42.293Z,14.65
2023-02-13T06:54:08.413Z,14.02
2023-02-13T06:56:34.561Z,13.93
2023-02-13T06:59:00.718Z,14.10
2023-02-13T07:01:26.956Z,15.88
2023-02-13T07:03:53.295Z,15.70
2023-02-13T07:06:19.451Z,15.13
2023-02-13T07:08:45.611Z,16.23
2023-02-13T07:11:11.771Z,14.52
2023-02-13T07:13:37.899Z,15.60
2023-02-13T07:16:04.141Z,14.88
2023-02-13T07:18:30.290Z,14.43
2023-02-13T07:20:56.720Z,14.60
2023-02-13T07:23:24.285Z,13.27
2023-02-13T07:25:50.474Z,14.90
2023-02-13T07:28:16.635Z,14.77
2023-02-13T07:30:42.872Z,15.60
2023-02-13T07:33:09.070Z,13.45
2023-02-13T07:35:35.284Z,14.80
2023-02-13T07:38:01.412Z,14.68
2023-02-13T07:40:27.590Z,14.98
2023-02-13T07:42:53.715Z,14.45
2023-02-13T07:45:19.831Z,13.15
2023-02-13T07:47:45.998Z,14.98
2023-02-13T07:50:12.169Z,14.88
2023-02-13T07:52:38.361Z,13.43
2023-02-13T07:55:04.492Z,13.43
2023-02-13T07:57:30.659Z,14.38
2023-02-13T07:59:56.877Z,14.15
2023-02-13T08:02:23.011Z,13.48
2023-02-13T08:04:49.187Z,13.75
2023-02-13T08:07:15.377Z,13.35
2023-02-13T08:09:41.561Z,13.98
2023-02-13T08:12:07.694Z,14.15
2023-02-13T08:14:33.877Z,15.40
2023-02-13T08:17:00.092Z,14.25
2023-02-13T08:19:26.339Z,15.82
2023-02-13T08:21:52.533Z,14.05
2023-02-13T08:24:18.745Z,14.82
2023-02-13T08:26:44.883Z,14.13
2023-02-13T08:29:11.075Z,13.93
2023-02-13T08:31:37.323Z,13.10
2023-02-13T08:34:03.532Z,12.48
2023-02-13T08:36:29.686Z,11.10
2023-02-13T08:38:55.851Z,11.18
2023-02-13T08:41:22.044Z,11.45
2023-02-13T08:43:48.199Z,9.75
2023-02-13T08:46:14.381Z,9.70
2023-02-13T08:48:40.564Z,9.48
2023-02-13T08:51:06.721Z,8.98
2023-02-13T08:53:32.872Z,9.27
2023-02-13T08:55:59.353Z,10.20
2023-02-13T08:58:25.692Z,8.85
2023-02-13T09:00:52.033Z,8.63
2023-02-13T09:03:18.360Z,8.80
2023-02-13T09:05:44.609Z,7.82
2023-02-13T09:08:10.809Z,7.88
2023-02-13T09:10:36.956Z,7.43
2023-02-13T09:13:03.118Z,8.18
2023-02-13T09:15:29.256Z,7.60
2023-02-13T09:17:55.425Z,7.82
2023-02-13T09:20:21.630Z,9.07
2023-02-13T09:22:47.828Z,8.68
2023-02-13T09:25:13.998Z,8.80
2023-02-13T09:27:40.236Z,8.93
2023-02-13T09:30:06.421Z,9.52
2023-02-13T09:32:32.630Z,8.45
2023-02-13T09:34:58.800Z,9.18
2023-02-13T09:37:25.016Z,8.95
2023-02-13T09:39:51.184Z,9.52
2023-02-13T09:42:17.361Z,8.73
2023-02-13T09:44:43.568Z,8.52
2023-02-13T09:47:09.771Z,8.57
2023-02-13T09:49:35.949Z,8.07
2023-02-13T09:52:02.868Z,8.27
2023-02-13T09:54:29.089Z,8.88
2023-02-13T09:56:55.320Z,8.48
2023-02-13T09:59:21.492Z,8.18
2023-02-13T10:01:47.780Z,8.05
2023-02-13T10:04:14.868Z,8.85
2023-02-13T10:06:41.060Z,7.55
2023-02-13T10:09:07.279Z,8.45
2023-02-13T10:11:33.488Z,8.98
2023-02-13T10:13:59.686Z,8.75
2023-02-13T10:16:25.900Z,8.65
2023-02-13T10:18:52.071Z,8.55
2023-02-13T10:21:18.257Z,8.93
2023-02-13T10:23:44.382Z,9.00
2023-02-13T10:26:10.577Z,8.90
2023-02-13T10:28:39.538Z,9.30
2023-02-13T10:31:05.872Z,8.90
2023-02-13T10:33:32.162Z,9.35
2023-02-13T10:35:58.661Z,9.55
2023-02-13T10:38:25.018Z,10.10
2023-02-13T10:40:51.229Z,9.40
2023-02-13T10:43:17.389Z,9.43
2023-02-13T10:45:43.569Z,9.82
2023-02-13T10:48:09.696Z,10.00
2023-02-13T10:50:35.910Z,9.20
2023-02-13T10:53:02.107Z,9.77
2023-02-13T10:55:28.250Z,10.35
2023-02-13T10:57:54.399Z,9.95
2023-02-13T11:00:20.635Z,10.88
2023-02-13T11:02:46.805Z,10.02
2023-02-13T11:05:12.964Z,10.68
2023-02-13T11:07:39.704Z,9.77
2023-02-13T11:10:07.707Z,9.95
2023-02-13T11:12:33.825Z,10.13
2023-02-13T11:15:00.882Z,9.48
2023-02-13T11:17:27.040Z,9.73
2023-02-13T11:19:53.230Z,9.77
2023-02-13T11:22:19.436Z,9.50
2023-02-13T11:24:45.575Z,9.85
2023-02-13T11:27:11.756Z,9.45
2023-02-13T11:29:37.981Z,9.65
2023-02-13T11:32:04.286Z,9.73
2023-02-13T11:34:30.489Z,8.93
2023-02-13T11:36:57.126Z,9.18
2023-02-13T11:39:23.327Z,9.52
2023-02-13T11:41:49.515Z,10.18
2023-02-13T11:44:15.735Z,9.48
2023-02-13T11:46:41.937Z,9.70
2023-02-13T11:49:08.228Z,8.65
2023-02-13T11:51:34.383Z,8.90
2023-02-13T11:54:00.566Z,9.27
2023-02-13T11:56:26.723Z,9.05
2023-02-13T11:58:52.916Z,9.57
2023-02-13T12:01:19.058Z,8.85
2023-02-13T12:03:45.286Z,10.15
2023-02-13T12:06:11.470Z,9.50
2023-02-13T12:08:37.682Z,8.18
2023-02-13T12:11:03.847Z,8.38
2023-02-13T12:13:30.078Z,9.57
2023-02-13T12:15:56.755Z,8.60
2023-02-13T12:18:23.061Z,8.57
2023-02-13T12:20:50.412Z,8.50
2023-02-13T12:23:17.785Z,8.30
2023-02-13T12:25:43.974Z,10.18
2023-02-13T12:28:10.177Z,8.90
2023-02-13T12:30:36.417Z,8.75
2023-02-13T12:33:02.634Z,8.45
2023-02-13T12:35:30.949Z,8.80
2023-02-13T12:37:57.105Z,7.82
2023-02-13T12:40:23.263Z,8.18
2023-02-13T12:42:49.440Z,7.82
2023-02-13T12:45:15.638Z,8.52
2023-02-13T12:47:44.556Z,8.27
2023-02-13T12:50:10.753Z,7.68
2023-02-13T12:52:37.110Z,7.93
2023-02-13T12:55:03.326Z,9.07
2023-02-13T12:57:29.537Z,9.07
2023-02-13T12:59:55.701Z,8.32
2023-02-13T13:02:21.956Z,8.23
2023-02-13T13:04:50.091Z,7.70
2023-02-13T13:07:16.342Z,8.50
2023-02-13T13:09:42.543Z,8.00
2023-02-13T13:12:09.931Z,8.18
2023-02-13T13:14:36.084Z,8.63
2023-02-13T13:17:02.329Z,7.95
2023-02-13T13:19:28.540Z,8.98
2023-02-13T13:21:55.108Z,8.63
2023-02-13T13:24:21.324Z,8.27
2023-02-13T13:26:49.094Z,9.20
2023-02-13T13:29:15.310Z,8.18
2023-02-13T13:31:41.564Z,8.40
2023-02-13T13:34:07.834Z,8.13
2023-02-13T13:36:34.026Z,8.57
2023-02-13T13:39:01.697Z,8.60
2023-02-13T13:41:28.022Z,9.55
2023-02-13T13:43:54.186Z,8.73
2023-02-13T13:46:20.386Z,8.88
2023-02-13T13:48:46.603Z,8.27
2023-02-13T13:51:12.836Z,7.80
2023-02-13T13:53:39.004Z,7.95
2023-02-13T13:56:05.189Z,8.02
2023-02-13T13:58:31.338Z,7.40
2023-02-13T14:00:58.044Z,7.97
2023-02-13T14:03:27.181Z,7.70
2023-02-13T14:05:54.603Z,8.23
2023-02-13T14:08:20.820Z,7.72
2023-02-13T14:10:47.963Z,8.35
2023-02-13T14:13:14.134Z,7.65
2023-02-13T14:15:40.354Z,7.50
2023-02-13T14:18:06.545Z,6.93
2023-02-13T14:20:32.730Z,6.72
2023-02-13T14:22:58.871Z,7.30
2023-02-13T14:25:25.005Z,7.53
2023-02-13T14:27:51.227Z,7.57
2023-02-13T14:30:17.472Z,7.43
2023-02-13T14:32:46.493Z,6.78
2023-02-13T14:35:12.667Z,7.38
2023-02-13T14:37:40.144Z,6.28
2023-02-13T14:40:06.564Z,5.78
2023-02-13T14:42:32.750Z,6.03
2023-02-13T14:44:58.927Z,5.35
2023-02-13T14:47:25.105Z,6.00
2023-02-13T14:49:51.273Z,5.80
2023-02-13T14:52:17.487Z,5.38
2023-02-13T14:54:44.002Z,5.70
2023-02-13T14:57:10.211Z,6.28
2023-02-13T14:59:36.360Z,5.93
2023-02-13T15:02:02.479Z,5.07
2023-02-13T15:04:28.770Z,4.47
2023-02-13T15:06:55.004Z,4.03
2023-02-13T15:09:21.191Z,3.55
2023-02-13T15:11:47.342Z,3.28
2023-02-13T15:14:13.524Z,3.60
2023-02-13T15:16:39.649Z,3.47
2023-02-13T15:19:08.799Z,3.00
2023-02-13T15:21:35.065Z,3.00
2023-02-13T15:24:01.296Z,3.20
2023-02-13T15:26:27.463Z,3.15
2023-02-13T15:28:53.724Z,3.28
2023-02-13T15:31:20.136Z,3.67
2023-02-13T15:33:46.398Z,3.35
2023-02-13T15:36:12.645Z,3.30
2023-02-13T15:38:38.817Z,3.83
2023-02-13T15:41:05.151Z,3.47
2023-02-13T15:43:31.455Z,3.63
2023-02-13T15:45:57.703Z,3.25
2023-02-13T15:48:23.871Z,3.47
2023-02-13T15:50:50.075Z,3.28
2023-02-13T15:53:16.484Z,3.33
2023-02-13T15:55:42.692Z,3.28
2023-02-13T15:58:08.902Z,3.45
2023-02-13T16:00:35.114Z,3.70
2023-02-13T16:03:01.359Z,3.47
2023-02-13T16:05:39.397Z,3.05
2023-02-13T16:08:06.546Z,3.35
2023-02-13T16:10:32.764Z,3.50
2023-02-13T16:12:59.098Z,3.80
2023-02-13T16:15:25.254Z,3.38
2023-02-13T16:17:51.458Z,3.35
2023-02-13T16:20:17.716Z,3.40
2023-02-13T16:22:43.915Z,3.47
2023-02-13T16:25:10.144Z,3.80
2023-02-13T16:27:36.307Z,3.40
2023-02-13T16:30:02.624Z,3.20
2023-02-13T16:32:28.868Z,3.20
2023-02-13T16:34:55.138Z,3.20
2023-02-13T16:37:21.373Z,3.72
2023-02-13T16:39:47.580Z,3.60
2023-02-13T16:42:13.756Z,3.50
2023-02-13T16:44:39.883Z,3.58
2023-02-13T16:47:06.037Z,4.10
2023-02-13T16:49:32.233Z,3.58
2023-02-13T16:51:58.524Z,3.42
2023-02-13T16:54:24.734Z,3.67
2023-02-13T16:56:50.982Z,3.67
2023-02-13T16:59:17.182Z,3.88
2023-02-13T17:01:59.662Z,3.97
2023-02-13T17:04:25.894Z,4.07
2023-02-13T17:06:52.029Z,4.40
2023-02-13T17:09:18.186Z,3.75
2023-02-13T17:11:44.356Z,4.32
2023-02-13T17:14:10.618Z,4.45
2023-02-13T17:16:40.214Z,5.70
2023-02-13T17:19:06.447Z,5.72
2023-02-13T17:21:32.640Z,6.50
2023-02-13T17:23:58.829Z,5.80
2023-02-13T17:26:25.051Z,6.45
2023-02-13T17:28:51.241Z,6.68
2023-02-13T17:31:17.555Z,7.00
2023-02-13T17:33:43.800Z,6.32
2023-02-13T17:36:09.979Z,7.00
2023-02-13T17:38:36.197Z,7.15
2023-02-13T17:41:02.395Z,5.50
2023-02-13T17:43:28.562Z,6.13
2023-02-13T17:45:54.743Z,6.20
2023-02-13T17:48:20.934Z,6.40
2023-02-13T17:50:47.090Z,6.80
2023-02-13T17:53:13.306Z,6.25
2023-02-13T17:55:39.509Z,5.50
2023-02-13T17:58:08.736Z,5.32
2023-02-13T18:00:34.931Z,5.90
2023-02-13T18:03:01.135Z,5.20
2023-02-13T18:05:28.165Z,5.30
2023-02-13T18:07:54.331Z,5.28
2023-02-13T18:10:20.540Z,5.45
2023-02-13T18:12:46.727Z,4.63
2023-02-13T18:15:12.858Z,6.32
2023-02-13T18:17:39.113Z,6.90
2023-02-13T18:20:05.259Z,9.43
2023-02-13T18:22:31.443Z,10.02
2023-02-13T18:24:57.621Z,9.13
2023-02-13T18:27:23.871Z,8.90
2023-02-13T18:29:50.074Z,8.38
2023-02-13T18:32:16.228Z,8.25
2023-02-13T18:34:42.442Z,7.32
2023-02-13T18:37:08.674Z,7.68
2023-02-13T18:39:34.822Z,7.93
2023-02-13T18:42:01.021Z,9.23
2023-02-13T18:44:29.428Z,6.55
2023-02-13T18:46:55.680Z,5.47
2023-02-13T18:49:21.883Z,4.72
2023-02-13T18:51:48.091Z,6.28
2023-02-13T18:54:14.488Z,7.53
2023-02-13T18:56:40.661Z,7.72
2023-02-13T18:59:06.893Z,7.03
2023-02-13T19:01:33.251Z,6.63
2023-02-13T19:03:59.522Z,7.43
2023-02-13T19:06:25.743Z,6.75
2023-02-13T19:08:51.917Z,8.65
2023-02-13T19:11:18.174Z,8.00
2023-02-13T19:13:44.389Z,9.38
2023-02-13T19:16:10.588Z,10.82
2023-02-13T19:18:36.795Z,9.55
2023-02-13T19:21:02.995Z,9.55
2023-02-13T19:23:29.178Z,7.68
2023-02-13T19:25:55.363Z,9.10
2023-02-13T19:28:21.552Z,10.63
2023-02-13T19:30:47.795Z,9.23
2023-02-13T19:33:14.025Z,7.55
2023-02-13T19:35:40.218Z,7.47
2023-02-13T19:38:06.447Z,7.72
2023-02-13T19:40:32.624Z,7.45
2023-02-13T19:42:58.809Z,7.20
2023-02-13T19:45:24.991Z,8.95
2023-02-13T19:47:51.339Z,7.30
2023-02-13T19:50:17.552Z,8.73
2023-02-13T19:52:43.773Z,9.65
2023-02-13T19:55:09.960Z,9.18
2023-02-13T19:57:36.143Z,10.20
2023-02-13T20:00:02.408Z,9.85
2023-02-13T20:02:28.624Z,8.25
2023-02-13T20:04:54.877Z,9.20
2023-02-13T20:07:21.087Z,9.02
2023-02-13T20:09:47.297Z,8.43
2023-02-13T20:12:15.886Z,9.45
2023-02-13T20:14:42.013Z,9.60
2023-02-13T20:17:08.225Z,9.75
2023-02-13T20:19:34.646Z,8.98
2023-02-13T20:22:00.815Z,9.05
2023-02-13T20:24:27.058Z,8.68
2023-02-13T20:26:53.283Z,9.68
2023-02-13T20:29:19.490Z,8.40
2023-02-13T20:31:45.753Z,9.43
2023-02-13T20:34:12.055Z,9.40
2023-02-13T20:36:38.317Z,9.30
2023-02-13T20:39:04.560Z,9.07
2023-02-13T20:41:30.845Z,8.55
2023-02-13T20:43:57.141Z,8.27
2023-02-13T20:46:23.407Z,8.93
2023-02-13T20:48:49.647Z,8.65
2023-02-13T20:51:15.862Z,9.38
2023-02-13T20:53:42.107Z,7.97
2023-02-13T20:56:08.326Z,8.93
2023-02-13T20:58:34.530Z,11.25
2023-02-13T21:01:01.091Z,10.07
2023-02-13T21:03:27.580Z,10.50
2023-02-13T21:05:53.787Z,11.43
2023-02-13T21:08:20.032Z,12.57
2023-02-13T21:10:46.228Z,12.10
2023-02-13T21:13:12.529Z,9.63
2023-02-13T21:15:38.750Z,9.13
2023-02-13T21:18:04.984Z,9.68
2023-02-13T21:20:31.210Z,9.95
2023-02-13T21:22:57.368Z,9.23
2023-02-13T21:25:23.545Z,10.00
2023-02-13T21:27:49.712Z,9.07
2023-02-13T21:30:15.943Z,9.32
2023-02-13T21:32:42.202Z,9.25
2023-02-13T21:35:08.405Z,9.20
2023-02-13T21:37:34.596Z,9.68
2023-02-13T21:40:00.784Z,9.15
2023-02-13T21:42:27.055Z,9.48
2023-02-13T21:44:53.211Z,10.13
2023-02-13T21:47:19.420Z,9.57
2023-02-13T21:49:45.643Z,9.68
2023-02-13T21:52:11.864Z,10.02
2023-02-13T21:54:38.038Z,9.20
2023-02-13T21:57:04.219Z,9.40
2023-02-13T21:59:30.362Z,9.63
2023-02-13T22:01:56.631Z,9.10
2023-02-13T22:04:22.913Z,10.55
2023-02-13T22:06:49.090Z,10.10
2023-02-13T22:09:15.213Z,10.13
2023-02-13T22:11:41.449Z,10.38
2023-02-13T22:14:07.630Z,9.18
2023-02-13T22:16:33.841Z,9.90
2023-02-13T22:19:00.004Z,9.15
2023-02-13T22:21:26.210Z,10.57
2023-02-13T22:23:52.419Z,9.10
2023-02-13T22:26:18.567Z,10.20
2023-02-13T22:28:44.713Z,10.80
2023-02-13T22:31:10.963Z,10.25
2023-02-13T22:33:37.171Z,9.60
2023-02-13T22:36:03.364Z,9.82
2023-02-13T22:38:29.548Z,10.55
2023-02-13T22:40:55.738Z,10.30
2023-02-13T22:43:21.907Z,10.82
2023-02-13T22:45:48.148Z,10.07
2023-02-13T22:48:14.344Z,12.05
2023-02-13T22:50:40.537Z,9.90
2023-02-13T22:53:06.717Z,9.40
2023-02-13T22:55:32.864Z,11.95
2023-02-13T22:57:59.062Z,9.13
2023-02-13T23:00:25.311Z,11.20
2023-02-13T23:02:51.516Z,10.90
2023-02-13T23:05:17.695Z,11.20
2023-02-13T23:07:43.842Z,11.18
2023-02-13T23:10:09.993Z,10.02
2023-02-13T23:12:36.149Z,11.23
2023-02-13T23:15:02.308Z,10.45
2023-02-13T23:17:29.927Z,10.75
2023-02-13T23:19:56.125Z,10.50
2023-02-13T23:22:22.302Z,10.43
2023-02-13T23:24:48.447Z,10.38
2023-02-13T23:27:14.598Z,11.15
2023-02-13T23:29:40.742Z,11.85
2023-02-13T23:32:06.937Z,10.57
2023-02-13T23:34:33.110Z,10.80
2023-02-13T23:36:59.256Z,11.88
2023-02-13T23:39:25.385Z,10.82
2023-02-13T23:41:51.572Z,10.98
2023-02-13T23:44:17.768Z,12.30
2023-02-13T23:46:44.024Z,11.63
2023-02-13T23:49:10.190Z,11.23
2023-02-13T23:51:36.377Z,11.43
2023-02-13T23:54:02.775Z,10.50
2023-02-13T23:56:28.972Z,11.63
2023-02-13T23:58:55.097Z,11.88
